Main page
METAR-TAF:

METAR-TAF

Airports :

Deputado Luís Eduardo Magalhães International Airport

Salvador, Bahia, Brazil

latitude: 12-54S, longitude: 038-20W, elevation: 6 m

Current weather observation

The report was made 47 minutes ago, at 07:00 UTC
Wind 2 kt from the West/Northwest
Temperature 25°C
Humidity 89%
Pressure 1012 hPa
Visibility 10 km or more
Scattered clouds at a height of 2000 ft

METAR: SBSV 200700Z 29002KT 9999 SCT020 25/23 Q1012

Time: 04:47 (07:47 UTC)

Forecast

The report was made 3 hours and 47 minutes ago, at 04:00 UTC
Forecast valid from 20 at 06 UTC to 21 at 06 UTC
Wind 5 kt from the North/Northeast
Visibility 10 km or more
Few clouds at a height of 2000 ft
Becoming
from 20 at 14 UTC to 20 at 16 UTC
Wind 8 kt from the East
Becoming
from 20 at 23 UTC to 21 at 01 UTC
Wind 5 kt from the North/Northeast

TAF: SBSV 200400Z 2006/2106 02005KT 9999 FEW020 TN25/2008Z TX31/2017Z BECMG 2014/2016 08008KT BECMG 2023/2101 02005KT RMK PAY

Weather observations and forecasts of more than 4000 airports (METAR and TAF reports).

The available stations are represented by yellow and red dots on the map.

Hover mouse over dot to see the name of the station.

Then click to see weather observations and forecasts.

To change the map : click on the green buttons with a black cross to zoom in, on the green button with a dash to zoom out, or on the green arrows for adjacent maps.


METAR-TAF: